createdAt,value
2017-11-17T00:01:38.968Z,100.47
2017-11-17T00:04:07.638Z,110.10
2017-11-17T00:06:36.298Z,119.37
2017-11-17T00:09:05.019Z,93.40
2017-11-17T00:11:33.618Z,84.67
2017-11-17T00:14:02.287Z,69.77
2017-11-17T00:16:30.774Z,52.57
2017-11-17T00:18:59.292Z,58.00
2017-11-17T00:21:27.883Z,57.20
2017-11-17T00:23:56.475Z,62.87
2017-11-17T00:26:26.137Z,56.53
2017-11-17T00:28:54.800Z,60.33
2017-11-17T00:31:23.369Z,62.23
2017-11-17T00:33:52.084Z,93.50
2017-11-17T00:36:20.712Z,53.40
2017-11-17T00:38:49.348Z,53.83
2017-11-17T00:41:17.916Z,52.77
2017-11-17T00:43:46.524Z,57.63
2017-11-17T00:46:15.364Z,56.00
2017-11-17T00:48:44.902Z,51.57
2017-11-17T00:51:13.407Z,62.50
2017-11-17T00:53:42.055Z,81.60
2017-11-17T00:56:12.450Z,76.77
2017-11-17T00:58:41.080Z,54.40
2017-11-17T01:01:09.630Z,60.53
2017-11-17T01:03:38.345Z,40.77
2017-11-17T01:06:06.982Z,36.60
2017-11-17T01:08:35.619Z,36.30
2017-11-17T01:11:04.222Z,31.77
2017-11-17T01:13:32.892Z,35.07
2017-11-17T01:16:01.656Z,44.90
2017-11-17T01:18:30.222Z,37.90
2017-11-17T01:20:58.898Z,43.60
2017-11-17T01:23:27.468Z,45.77
2017-11-17T01:25:56.105Z,42.57
2017-11-17T01:28:24.666Z,36.03
2017-11-17T01:30:53.345Z,34.20
2017-11-17T01:33:22.008Z,35.03
2017-11-17T01:35:50.584Z,49.13
2017-11-17T01:38:19.112Z,42.73
2017-11-17T01:40:47.779Z,37.07
2017-11-17T01:43:16.411Z,48.90
2017-11-17T01:45:44.960Z,37.10
2017-11-17T01:48:13.522Z,38.57
2017-11-17T01:50:42.199Z,40.47
2017-11-17T01:53:10.646Z,44.77
2017-11-17T01:55:39.309Z,67.67
2017-11-17T01:58:07.917Z,51.27
2017-11-17T02:00:37.488Z,48.13
2017-11-17T02:03:06.111Z,91.63
2017-11-17T02:05:34.760Z,81.57
2017-11-17T02:08:03.369Z,72.17
2017-11-17T02:10:31.891Z,74.87
2017-11-17T02:13:00.404Z,72.90
2017-11-17T02:15:29.103Z,100.97
2017-11-17T02:17:57.519Z,99.20
2017-11-17T02:20:25.895Z,98.63
2017-11-17T02:22:54.257Z,97.00
2017-11-17T02:25:24.538Z,130.37
2017-11-17T02:27:52.927Z,97.27
2017-11-17T02:30:21.306Z,98.40
2017-11-17T02:32:49.673Z,104.73
2017-11-17T02:35:18.041Z,146.20
2017-11-17T02:37:46.420Z,125.90
2017-11-17T02:40:14.857Z,118.70
2017-11-17T02:42:43.233Z,119.80
2017-11-17T02:45:11.608Z,110.57
2017-11-17T02:47:40.008Z,86.87
2017-11-17T02:50:08.386Z,87.47
2017-11-17T02:52:36.749Z,65.80
2017-11-17T02:55:05.109Z,65.93
2017-11-17T02:57:33.500Z,53.93
2017-11-17T03:00:01.904Z,50.53
2017-11-17T03:02:30.274Z,37.73
2017-11-17T03:04:58.642Z,48.00
2017-11-17T03:07:27.001Z,42.57
2017-11-17T03:09:55.387Z,37.50
2017-11-17T03:12:23.764Z,35.10
2017-11-17T03:14:52.123Z,39.10
2017-11-17T03:17:20.487Z,29.23
2017-11-17T03:19:48.840Z,29.63
2017-11-17T03:22:17.246Z,25.93
2017-11-17T03:24:45.607Z,26.47
2017-11-17T03:27:13.971Z,33.10
2017-11-17T03:29:42.343Z,28.97
2017-11-17T03:32:10.697Z,33.17
2017-11-17T03:34:39.085Z,28.80
2017-11-17T03:37:07.450Z,31.73
2017-11-17T03:39:36.714Z,35.27
2017-11-17T03:42:05.076Z,34.60
2017-11-17T03:44:33.432Z,24.50
2017-11-17T03:47:01.792Z,30.03
2017-11-17T03:49:30.172Z,25.47
2017-11-17T03:51:58.570Z,32.10
2017-11-17T03:54:26.948Z,41.43
2017-11-17T03:56:55.312Z,42.70
2017-11-17T03:59:23.695Z,38.50
2017-11-17T04:01:52.056Z,39.73
2017-11-17T04:04:20.413Z,42.27
2017-11-17T04:06:48.804Z,46.63
2017-11-17T04:09:17.169Z,37.13
2017-11-17T04:11:45.529Z,40.00
2017-11-17T04:14:13.888Z,41.83
2017-11-17T04:16:42.244Z,35.60
2017-11-17T04:19:10.631Z,34.37
2017-11-17T04:21:40.899Z,34.80
2017-11-17T04:24:09.252Z,31.53
2017-11-17T04:26:37.620Z,26.20
2017-11-17T04:29:05.992Z,28.77
2017-11-17T04:31:35.289Z,32.77
2017-11-17T04:34:03.643Z,34.53
2017-11-17T04:36:32.012Z,29.00
2017-11-17T04:39:00.390Z,31.93
2017-11-17T04:41:29.657Z,34.03
2017-11-17T04:43:58.065Z,31.07
2017-11-17T04:46:26.435Z,29.03
2017-11-17T04:48:54.793Z,30.07
2017-11-17T04:51:23.168Z,27.00
2017-11-17T04:53:51.521Z,34.70
2017-11-17T04:56:19.916Z,28.50
2017-11-17T04:58:48.281Z,28.83
2017-11-17T05:01:16.644Z,28.70
2017-11-17T05:03:45.002Z,27.87
2017-11-17T05:06:13.361Z,25.40
2017-11-17T05:08:41.759Z,19.63
2017-11-17T05:11:10.127Z,22.70
2017-11-17T05:13:38.491Z,25.83
2017-11-17T05:16:06.857Z,32.23
2017-11-17T05:18:35.233Z,32.23
2017-11-17T05:21:03.614Z,31.30
2017-11-17T05:23:31.978Z,32.53
2017-11-17T05:26:00.340Z,31.43
2017-11-17T05:28:28.705Z,37.73
2017-11-17T05:30:57.093Z,34.30
2017-11-17T05:33:25.500Z,45.90
2017-11-17T05:35:53.866Z,40.30
2017-11-17T05:38:22.232Z,28.87
2017-11-17T05:40:51.500Z,36.67
2017-11-17T05:43:19.871Z,41.67
2017-11-17T05:45:48.261Z,40.30
2017-11-17T05:48:17.520Z,38.60
2017-11-17T05:50:45.888Z,32.03
2017-11-17T05:53:14.291Z,42.53
2017-11-17T05:55:42.653Z,40.10
2017-11-17T05:58:11.021Z,34.63
2017-11-17T06:00:39.378Z,39.63
2017-11-17T06:03:07.756Z,50.00
2017-11-17T06:05:37.023Z,45.50
2017-11-17T06:08:05.387Z,39.33
2017-11-17T06:10:33.784Z,52.63
2017-11-17T06:13:02.149Z,46.37
2017-11-17T06:15:30.512Z,41.53
2017-11-17T06:17:58.884Z,34.20
2017-11-17T06:20:27.249Z,37.43
2017-11-17T06:22:55.624Z,38.47
2017-11-17T06:25:24.068Z,43.17
2017-11-17T06:27:52.523Z,29.87
2017-11-17T06:30:20.895Z,33.93
2017-11-17T06:32:49.301Z,32.43
2017-11-17T06:35:17.651Z,31.23
2017-11-17T06:37:46.025Z,37.30
2017-11-17T06:40:14.411Z,25.23
2017-11-17T06:42:42.766Z,33.77
2017-11-17T06:45:11.149Z,40.53
2017-11-17T06:47:39.524Z,43.17
2017-11-17T06:50:07.875Z,37.60
2017-11-17T06:52:36.260Z,45.10
2017-11-17T06:55:04.608Z,38.70
2017-11-17T06:57:32.969Z,49.27
2017-11-17T07:00:01.322Z,38.57
2017-11-17T07:02:29.673Z,36.23
2017-11-17T07:04:58.060Z,41.20
2017-11-17T07:07:26.419Z,35.10
2017-11-17T07:09:56.089Z,39.70
2017-11-17T07:12:24.440Z,28.40
2017-11-17T07:14:52.776Z,24.13
2017-11-17T07:17:21.161Z,18.17
2017-11-17T07:19:49.511Z,25.80
2017-11-17T07:22:17.860Z,15.53
2017-11-17T07:24:46.208Z,24.47
2017-11-17T07:27:14.581Z,24.30
2017-11-17T07:29:42.936Z,22.30
2017-11-17T07:32:11.288Z,18.13
2017-11-17T07:34:39.631Z,23.20
2017-11-17T07:37:08.148Z,24.47
2017-11-17T07:39:36.620Z,24.27
2017-11-17T07:42:04.973Z,23.03
2017-11-17T07:44:33.329Z,22.60
2017-11-17T07:47:01.687Z,23.33
2017-11-17T07:49:30.040Z,26.90
2017-11-17T07:51:58.421Z,28.47
2017-11-17T07:54:26.772Z,29.63
2017-11-17T07:56:55.110Z,24.40
2017-11-17T07:59:23.470Z,20.17
2017-11-17T08:01:51.824Z,29.97
2017-11-17T08:04:20.209Z,29.70
2017-11-17T08:06:48.572Z,29.60
2017-11-17T08:09:16.924Z,33.27
2017-11-17T08:11:45.261Z,30.10
2017-11-17T08:14:13.613Z,31.70
2017-11-17T08:16:41.993Z,34.33
2017-11-17T08:19:10.339Z,40.33
2017-11-17T08:21:38.699Z,38.17
2017-11-17T08:24:07.048Z,36.20
2017-11-17T08:26:35.418Z,28.43
2017-11-17T08:29:03.896Z,33.70
2017-11-17T08:31:32.254Z,31.37
2017-11-17T08:34:00.604Z,26.50
2017-11-17T08:36:28.985Z,19.13
2017-11-17T08:38:57.333Z,25.13
2017-11-17T08:41:25.683Z,30.67
2017-11-17T08:43:54.065Z,24.43
2017-11-17T08:46:22.414Z,26.73
2017-11-17T08:48:50.774Z,28.37
2017-11-17T08:51:19.119Z,30.03
2017-11-17T08:53:47.473Z,27.43
2017-11-17T08:56:15.876Z,40.00
2017-11-17T08:58:44.256Z,34.73
2017-11-17T09:01:12.673Z,33.60
2017-11-17T09:03:41.052Z,21.43
2017-11-17T09:06:09.390Z,20.53
2017-11-17T09:08:37.785Z,28.07
2017-11-17T09:11:06.275Z,30.07
2017-11-17T09:13:34.640Z,14.30
2017-11-17T09:16:03.002Z,20.23
2017-11-17T09:18:31.350Z,21.30
2017-11-17T09:20:59.817Z,26.27
2017-11-17T09:23:28.152Z,22.13
2017-11-17T09:25:56.494Z,22.07
2017-11-17T09:28:24.836Z,23.07
2017-11-17T09:30:53.198Z,15.60
2017-11-17T09:33:21.562Z,13.67
2017-11-17T09:35:49.914Z,14.03
2017-11-17T09:38:18.266Z,15.60
2017-11-17T09:40:46.604Z,20.80
2017-11-17T09:43:14.949Z,17.90
2017-11-17T09:45:43.532Z,16.47
2017-11-17T09:48:11.893Z,21.23
2017-11-17T09:50:40.255Z,20.40
2017-11-17T09:53:08.644Z,20.00
2017-11-17T09:55:36.961Z,11.70
2017-11-17T09:58:05.331Z,17.17
2017-11-17T10:00:33.670Z,24.40
2017-11-17T10:03:02.027Z,18.53
2017-11-17T10:05:30.371Z,12.37
2017-11-17T10:07:58.729Z,31.93
2017-11-17T10:10:27.102Z,13.67
2017-11-17T10:12:55.446Z,13.33
2017-11-17T10:15:23.800Z,12.87
2017-11-17T10:17:52.148Z,19.70
2017-11-17T10:20:20.488Z,10.93
2017-11-17T10:22:48.966Z,13.27
2017-11-17T10:25:17.308Z,12.00
2017-11-17T10:27:45.955Z,17.03
2017-11-17T10:30:14.393Z,18.20
2017-11-17T10:32:42.729Z,26.17
2017-11-17T10:35:11.097Z,14.83
2017-11-17T10:37:39.446Z,19.60
2017-11-17T10:40:07.798Z,18.17
2017-11-17T10:42:36.132Z,15.63
2017-11-17T10:45:04.471Z,17.23
2017-11-17T10:47:32.922Z,18.00
2017-11-17T10:50:01.276Z,10.63
2017-11-17T10:52:29.616Z,14.23
2017-11-17T10:54:57.969Z,19.30
2017-11-17T10:57:26.447Z,17.87
2017-11-17T10:59:57.817Z,16.13
2017-11-17T11:02:26.168Z,19.33
2017-11-17T11:04:54.506Z,23.70
2017-11-17T11:07:23.036Z,22.83
2017-11-17T11:09:51.401Z,18.77
2017-11-17T11:12:19.794Z,18.13
2017-11-17T11:14:48.162Z,13.20
2017-11-17T11:17:16.492Z,20.00
2017-11-17T11:19:44.847Z,15.37
2017-11-17T11:22:13.192Z,17.23
2017-11-17T11:24:41.563Z,16.63
2017-11-17T11:27:09.921Z,15.03
2017-11-17T11:29:38.274Z,22.53
2017-11-17T11:32:06.609Z,21.33
2017-11-17T11:34:34.951Z,23.10
2017-11-17T11:37:03.486Z,19.63
2017-11-17T11:39:32.112Z,12.87
2017-11-17T11:42:00.676Z,13.30
2017-11-17T11:44:29.184Z,16.60
2017-11-17T11:46:57.544Z,14.83
2017-11-17T11:49:25.964Z,13.10
2017-11-17T11:51:54.368Z,13.57
2017-11-17T11:54:22.716Z,20.77
2017-11-17T11:56:51.142Z,12.60
2017-11-17T11:59:19.486Z,14.50
2017-11-17T12:01:47.852Z,22.60
2017-11-17T12:04:16.196Z,15.00
2017-11-17T12:06:44.545Z,19.10
2017-11-17T12:09:12.888Z,16.30
2017-11-17T12:11:41.232Z,20.70
2017-11-17T12:14:09.612Z,13.63
2017-11-17T12:16:37.956Z,14.10
2017-11-17T12:19:06.312Z,21.10
2017-11-17T12:21:34.641Z,19.87
2017-11-17T12:24:02.994Z,19.20
2017-11-17T12:26:31.364Z,22.03
2017-11-17T12:28:59.717Z,15.77
2017-11-17T12:31:28.060Z,13.23
2017-11-17T12:33:56.411Z,24.87
2017-11-17T12:36:24.744Z,17.23
2017-11-17T12:38:53.137Z,15.20
2017-11-17T12:41:21.485Z,19.23
2017-11-17T12:43:49.900Z,22.17
2017-11-17T12:46:18.255Z,13.47
2017-11-17T12:48:46.683Z,9.17
2017-11-17T12:51:15.057Z,14.47
2017-11-17T12:53:43.399Z,12.60
2017-11-17T12:56:11.758Z,14.87
2017-11-17T12:58:40.105Z,18.13
2017-11-17T13:01:08.452Z,14.97
2017-11-17T13:03:36.828Z,10.60
2017-11-17T13:06:05.169Z,9.13
2017-11-17T13:08:33.540Z,11.83
2017-11-17T13:11:02.105Z,12.43
2017-11-17T13:13:30.529Z,12.07
2017-11-17T13:15:58.909Z,9.03
2017-11-17T13:18:27.253Z,9.80
2017-11-17T13:20:55.600Z,4.67
2017-11-17T13:23:23.946Z,12.13
2017-11-17T13:25:52.308Z,13.63
2017-11-17T13:28:20.677Z,9.37
2017-11-17T13:30:49.017Z,10.20
2017-11-17T13:33:17.371Z,6.63
2017-11-17T13:35:45.712Z,10.77
2017-11-17T13:38:14.054Z,11.10
2017-11-17T13:40:42.421Z,9.70
2017-11-17T13:43:10.760Z,6.90
2017-11-17T13:45:39.092Z,11.00
2017-11-17T13:48:07.433Z,11.80
2017-11-17T13:50:35.777Z,9.13
2017-11-17T13:53:04.143Z,11.00
2017-11-17T13:55:32.505Z,9.67
2017-11-17T13:58:00.879Z,18.50
2017-11-17T14:00:29.224Z,14.57
2017-11-17T14:02:57.571Z,11.93
2017-11-17T14:05:25.954Z,13.73
2017-11-17T14:07:54.345Z,26.73
2017-11-17T14:10:22.676Z,22.93
2017-11-17T14:12:51.012Z,14.50
2017-11-17T14:15:19.413Z,18.63
2017-11-17T14:17:47.820Z,14.60
2017-11-17T14:20:16.161Z,16.33
2017-11-17T14:22:44.505Z,21.70
2017-11-17T14:25:12.921Z,22.90
2017-11-17T14:27:41.273Z,23.50
2017-11-17T14:30:09.793Z,13.37
2017-11-17T14:32:38.139Z,14.13
2017-11-17T14:35:06.494Z,13.53
2017-11-17T14:37:34.848Z,12.13
2017-11-17T14:40:03.221Z,17.23
2017-11-17T14:42:31.809Z,23.17
2017-11-17T14:45:00.156Z,17.00
2017-11-17T14:47:28.505Z,14.70
2017-11-17T14:49:56.903Z,15.43
2017-11-17T14:52:25.359Z,18.80
2017-11-17T14:54:53.721Z,13.77
2017-11-17T14:57:22.084Z,11.07
2017-11-17T14:59:50.432Z,30.73
2017-11-17T15:02:18.866Z,15.20
2017-11-17T15:04:47.221Z,21.57
2017-11-17T15:07:15.568Z,18.93
2017-11-17T15:09:43.927Z,14.53
2017-11-17T15:12:12.283Z,23.43
2017-11-17T15:14:40.667Z,26.87
2017-11-17T15:17:09.021Z,22.53
2017-11-17T15:19:37.373Z,13.60
2017-11-17T15:22:05.721Z,17.93
2017-11-17T15:24:34.063Z,38.43
2017-11-17T15:27:02.442Z,34.03
2017-11-17T15:29:30.797Z,27.20
2017-11-17T15:31:59.135Z,18.63
2017-11-17T15:34:27.501Z,16.63
2017-11-17T15:36:55.847Z,29.93
2017-11-17T15:39:24.220Z,23.47
2017-11-17T15:41:52.576Z,27.20
2017-11-17T15:44:20.937Z,23.33
2017-11-17T15:46:49.290Z,30.90
2017-11-17T15:49:17.649Z,16.80
2017-11-17T15:51:46.037Z,26.52
2017-11-17T15:54:14.392Z,20.12
2017-11-17T15:56:42.748Z,29.15
2017-11-17T15:59:11.125Z,21.23
2017-11-17T16:01:39.482Z,26.85
2017-11-17T16:04:07.862Z,23.23
2017-11-17T16:06:36.353Z,17.10
2017-11-17T16:09:04.713Z,29.12
2017-11-17T16:11:33.969Z,21.73
2017-11-17T16:14:02.321Z,42.15
2017-11-17T16:16:30.671Z,39.85
2017-11-17T16:18:59.068Z,12.63
2017-11-17T16:21:27.421Z,21.48
2017-11-17T16:23:55.788Z,35.00
2017-11-17T16:26:24.135Z,26.77
2017-11-17T16:28:52.492Z,39.13
2017-11-17T16:31:20.875Z,30.75
2017-11-17T16:33:49.235Z,21.62
2017-11-17T16:36:17.592Z,30.05
2017-11-17T16:38:45.957Z,30.62
2017-11-17T16:41:14.325Z,36.38
2017-11-17T16:43:42.710Z,20.92
2017-11-17T16:46:11.065Z,25.55
2017-11-17T16:48:39.437Z,32.92
2017-11-17T16:51:07.788Z,42.78
2017-11-17T16:53:36.237Z,22.33
2017-11-17T16:56:04.616Z,24.45
2017-11-17T16:58:32.980Z,20.95
2017-11-17T17:01:01.332Z,31.65
2017-11-17T17:03:29.868Z,28.38
2017-11-17T17:05:58.248Z,20.52
2017-11-17T17:08:26.651Z,19.23
2017-11-17T17:10:55.006Z,24.25
2017-11-17T17:13:23.355Z,29.52
2017-11-17T17:15:51.707Z,20.98
2017-11-17T17:18:20.062Z,25.27
2017-11-17T17:20:48.453Z,23.85
2017-11-17T17:23:16.848Z,30.90
2017-11-17T17:25:45.224Z,26.60
2017-11-17T17:28:13.579Z,34.25
2017-11-17T17:30:41.922Z,27.05
2017-11-17T17:33:10.271Z,30.83
2017-11-17T17:35:38.617Z,29.63
2017-11-17T17:38:07.001Z,26.62
2017-11-17T17:40:35.400Z,21.77
2017-11-17T17:43:03.741Z,19.33
2017-11-17T17:45:32.235Z,26.62
2017-11-17T17:48:00.631Z,22.65
2017-11-17T17:50:29.028Z,33.83
2017-11-17T17:52:57.383Z,20.27
2017-11-17T17:55:25.724Z,38.75
2017-11-17T17:57:54.113Z,30.35
2017-11-17T18:00:22.601Z,26.90
2017-11-17T18:02:50.937Z,28.70
2017-11-17T18:05:19.281Z,29.87
2017-11-17T18:07:47.627Z,17.37
2017-11-17T18:10:16.104Z,35.17
2017-11-17T18:12:44.462Z,32.30
2017-11-17T18:15:12.819Z,42.55
2017-11-17T18:17:41.171Z,37.08
2017-11-17T18:20:09.530Z,32.45
2017-11-17T18:22:37.931Z,38.00
2017-11-17T18:25:06.361Z,31.40
2017-11-17T18:27:34.715Z,26.52
2017-11-17T18:30:03.060Z,22.92
2017-11-17T18:32:31.457Z,22.48
2017-11-17T18:34:59.923Z,30.73
2017-11-17T18:37:28.309Z,38.25
2017-11-17T18:39:56.652Z,34.30
2017-11-17T18:42:25.017Z,31.08
2017-11-17T18:44:53.370Z,33.60
2017-11-17T18:47:21.718Z,27.55
2017-11-17T18:49:50.126Z,21.62
2017-11-17T18:52:18.804Z,52.53
2017-11-17T18:54:47.151Z,37.38
2017-11-17T18:57:15.506Z,38.75
2017-11-17T18:59:43.911Z,30.77
2017-11-17T19:02:12.235Z,29.60
2017-11-17T19:04:40.643Z,29.85
2017-11-17T19:07:08.991Z,23.30
2017-11-17T19:09:37.340Z,26.00
2017-11-17T19:12:05.717Z,24.52
2017-11-17T19:14:34.097Z,30.88
2017-11-17T19:17:02.432Z,28.38
2017-11-17T19:19:30.901Z,24.67
2017-11-17T19:21:59.252Z,27.67
2017-11-17T19:24:27.609Z,22.05
2017-11-17T19:26:55.954Z,32.10
2017-11-17T19:29:24.310Z,21.40
2017-11-17T19:31:53.559Z,22.75
2017-11-17T19:34:21.903Z,25.30
2017-11-17T19:36:50.245Z,26.73
2017-11-17T19:39:18.602Z,31.73
2017-11-17T19:41:47.007Z,23.48
2017-11-17T19:44:15.548Z,24.42
2017-11-17T19:46:43.908Z,28.92
2017-11-17T19:49:12.268Z,26.20
2017-11-17T19:51:40.607Z,28.50
2017-11-17T19:54:09.113Z,19.85
2017-11-17T19:56:37.453Z,25.90
2017-11-17T19:59:05.814Z,26.77
2017-11-17T20:01:34.154Z,26.27
2017-11-17T20:04:02.516Z,33.08
2017-11-17T20:06:30.902Z,33.92
2017-11-17T20:08:59.345Z,36.63
2017-11-17T20:11:27.703Z,22.98
2017-11-17T20:13:56.037Z,26.75
2017-11-17T20:16:24.396Z,21.25
2017-11-17T20:18:53.716Z,30.48
2017-11-17T20:21:22.068Z,28.38
2017-11-17T20:23:50.423Z,19.92
2017-11-17T20:26:18.783Z,26.45
2017-11-17T20:28:47.115Z,32.88
2017-11-17T20:31:15.470Z,36.35
2017-11-17T20:33:43.920Z,26.33
2017-11-17T20:36:12.309Z,25.45
2017-11-17T20:38:40.658Z,21.25
2017-11-17T20:41:09.002Z,28.77
2017-11-17T20:43:38.192Z,22.70
2017-11-17T20:46:06.620Z,22.55
2017-11-17T20:48:35.014Z,23.25
2017-11-17T20:51:03.368Z,31.12
2017-11-17T20:53:31.725Z,28.50
2017-11-17T20:56:00.087Z,23.85
2017-11-17T20:58:28.435Z,32.70
2017-11-17T21:00:56.839Z,38.17
2017-11-17T21:03:25.197Z,33.25
2017-11-17T21:05:53.558Z,28.90
2017-11-17T21:08:21.915Z,42.47
2017-11-17T21:10:50.272Z,38.63
2017-11-17T21:13:18.695Z,39.42
2017-11-17T21:15:47.048Z,37.50
2017-11-17T21:18:15.406Z,30.88
2017-11-17T21:20:44.721Z,29.45
2017-11-17T21:23:13.075Z,43.40
2017-11-17T21:25:41.480Z,26.73
2017-11-17T21:28:09.852Z,41.70
2017-11-17T21:30:38.231Z,40.30
2017-11-17T21:33:06.583Z,30.65
2017-11-17T21:35:34.994Z,32.35
2017-11-17T21:38:03.382Z,29.48
2017-11-17T21:40:31.751Z,27.23
2017-11-17T21:43:00.110Z,45.10
2017-11-17T21:45:28.470Z,36.40
2017-11-17T21:47:56.831Z,30.70
2017-11-17T21:50:25.272Z,27.83
2017-11-17T21:52:53.627Z,31.83
2017-11-17T21:55:21.983Z,30.62
2017-11-17T21:57:50.368Z,37.97
2017-11-17T22:00:18.723Z,35.25
2017-11-17T22:02:47.112Z,21.75
2017-11-17T22:05:15.469Z,27.15
2017-11-17T22:07:43.832Z,21.37
2017-11-17T22:10:12.181Z,17.05
2017-11-17T22:12:40.664Z,19.90
2017-11-17T22:15:09.083Z,28.08
2017-11-17T22:17:37.445Z,21.50
2017-11-17T22:20:05.800Z,25.35
2017-11-17T22:22:34.320Z,25.33
2017-11-17T22:25:02.672Z,35.10
2017-11-17T22:27:31.593Z,26.25
2017-11-17T22:29:59.948Z,26.35
2017-11-17T22:32:28.313Z,30.55
2017-11-17T22:34:56.705Z,31.90
2017-11-17T22:37:25.053Z,28.50
2017-11-17T22:39:53.417Z,23.35
2017-11-17T22:42:21.805Z,26.37
2017-11-17T22:44:50.158Z,31.60
2017-11-17T22:47:18.538Z,26.15
2017-11-17T22:49:46.896Z,23.62
2017-11-17T22:52:15.257Z,23.70
2017-11-17T22:54:43.642Z,18.98
2017-11-17T22:57:11.993Z,22.30
2017-11-17T22:59:40.353Z,23.40
2017-11-17T23:02:08.704Z,23.65
2017-11-17T23:04:37.061Z,17.12
2017-11-17T23:07:05.438Z,25.12
2017-11-17T23:09:33.797Z,29.40
2017-11-17T23:12:02.201Z,27.85
2017-11-17T23:14:30.548Z,22.90
2017-11-17T23:16:58.892Z,30.48
2017-11-17T23:22:01.853Z,15.18
2017-11-17T23:24:30.224Z,30.12
2017-11-17T23:26:59.474Z,24.83
2017-11-17T23:29:27.831Z,15.30
2017-11-17T23:31:56.169Z,46.33
2017-11-17T23:34:24.524Z,37.15
2017-11-17T23:36:53.000Z,20.30
2017-11-17T23:39:21.352Z,23.75
2017-11-17T23:41:49.703Z,20.75
2017-11-17T23:44:18.076Z,17.77
2017-11-17T23:46:46.447Z,22.15
2017-11-17T23:49:14.816Z,27.92
2017-11-17T23:51:43.180Z,33.58
2017-11-17T23:54:11.540Z,22.70
2017-11-17T23:56:39.891Z,24.98
2017-11-17T23:59:08.235Z,19.87
